Emslake — V2FL4 — position and weather

sailwx.info

Track history (hours):
 
Tides and Currents Weather Stations Pressure Air Temp Water Temp Dewpoint Dewpoint Depression Visibility Wind Speed Wind Dir Waves Ship Positions

Emslake

Last reported at 2015-May-30 02:34 UTC. Time now 2015-May-30 10:28 UTC.
Position N 56°49' E 017°13'.

Length 100 m; draft 5.6 m.

Type: Cargo ship. MMSI: 305712000.

Date/timePositionNaut miles runAvg speedWind from/ knotsBaromVisibWave heightAir tempDewpointWater temp
2015-May-30 02:34N 56°49' E 017°13'1111.0
2015-May-30 01:34N 56°60' E 017°21'1111.0
2015-May-30 00:34N 57°10' E 017°28'1110.9
2015-May-29 23:33N 57°20' E 017°35'  
2015-May-22 23:33N 57°45' E 016°49'4 0.2
2015-May-21 22:23N 57°45' E 016°41'0 0.0
2015-May-21 21:26N 57°45' E 016°41'12 1.4
2015-May-21 12:23N 57°40' E 017°01'8 9.4
2015-May-21 11:34N 57°34' E 017°09'9 9.4
2015-May-21 10:33N 57°25' E 017°16'9 9.4
2015-May-21 09:33N 57°16' E 017°19'10 9.6
2015-May-21 08:33N 57°06' E 017°15'94 9.4
2015-May-20 22:32N 55°45' E 015°49'1010.6
2015-May-20 21:33N 55°40' E 015°33'1110.6
2015-May-20 20:33N 55°35' E 015°17'1110.6
2015-May-20 19:33N 55°30' E 014°60'1110.7
2015-May-20 18:33N 55°24' E 014°44'1010.5
2015-May-20 17:33N 55°17' E 014°31'1010.3
2015-May-20 16:33N 55°09' E 014°19'1110.6
2015-May-20 15:33N 55°01' E 014°06'3210.4
2015-May-20 12:26N 54°51' E 013°13'3310.5
2015-May-20 09:18N 54°36' E 012°22'710.1
2015-May-20 08:33N 54°30' E 012°15'8 8.2
2015-May-20 07:33N 54°25' E 012°04'1010.4
2015-May-20 06:33N 54°25' E 011°46'10 9.7
2015-May-20 05:33N 54°29' E 011°31'10 9.9
2015-May-20 04:33N 54°33' E 011°16'10 9.9
2015-May-20 03:33N 54°35' E 010°59'1110.6
2015-May-20 02:34N 54°34' E 010°41'  
Track history (hours):
 
Tides and Currents Weather Stations Pressure Air Temp Water Temp Dewpoint Dewpoint Depression Visibility Wind Speed Wind Dir Waves Ship Positions

Emslake

Last reported at 2015-May-30 02:34 UTC. Time now 2015-May-30 10:28 UTC.
Position N 56°49' E 017°13'.

Length 100 m; draft 5.6 m.

Type: Cargo ship. MMSI: 305712000.

Date/timePositionNaut miles runAvg speedWind from/ knotsBaromVisibWave heightAir tempDewpointWater temp
2015-May-30 02:34N 56°49' E 017°13'1111.0
2015-May-30 01:34N 56°60' E 017°21'1111.0
2015-May-30 00:34N 57°10' E 017°28'1110.9
2015-May-29 23:33N 57°20' E 017°35'  
2015-May-22 23:33N 57°45' E 016°49'4 0.2
2015-May-21 22:23N 57°45' E 016°41'0 0.0
2015-May-21 21:26N 57°45' E 016°41'12 1.4
2015-May-21 12:23N 57°40' E 017°01'8 9.4
2015-May-21 11:34N 57°34' E 017°09'9 9.4
2015-May-21 10:33N 57°25' E 017°16'9 9.4
2015-May-21 09:33N 57°16' E 017°19'10 9.6
2015-May-21 08:33N 57°06' E 017°15'94 9.4
2015-May-20 22:32N 55°45' E 015°49'1010.6
2015-May-20 21:33N 55°40' E 015°33'1110.6
2015-May-20 20:33N 55°35' E 015°17'1110.6
2015-May-20 19:33N 55°30' E 014°60'1110.7
2015-May-20 18:33N 55°24' E 014°44'1010.5
2015-May-20 17:33N 55°17' E 014°31'1010.3
2015-May-20 16:33N 55°09' E 014°19'1110.6
2015-May-20 15:33N 55°01' E 014°06'3210.4
2015-May-20 12:26N 54°51' E 013°13'3310.5
2015-May-20 09:18N 54°36' E 012°22'710.1
2015-May-20 08:33N 54°30' E 012°15'8 8.2
2015-May-20 07:33N 54°25' E 012°04'1010.4
2015-May-20 06:33N 54°25' E 011°46'10 9.7
2015-May-20 05:33N 54°29' E 011°31'10 9.9
2015-May-20 04:33N 54°33' E 011°16'10 9.9
2015-May-20 03:33N 54°35' E 010°59'1110.6
2015-May-20 02:34N 54°34' E 010°41'  

Dump ship's entire track history